createdAt,value
2017-10-29T00:00:30.340Z,4.25
2017-10-29T00:02:59.589Z,6.03
2017-10-29T00:05:28.152Z,8.43
2017-10-29T00:07:56.644Z,18.50
2017-10-29T00:10:25.124Z,5.00
2017-10-29T00:12:54.015Z,8.68
2017-10-29T00:15:22.545Z,4.32
2017-10-29T00:17:51.779Z,6.72
2017-10-29T00:20:20.178Z,5.12
2017-10-29T00:22:48.570Z,10.02
2017-10-29T00:25:17.385Z,6.12
2017-10-29T00:27:46.636Z,7.60
2017-10-29T00:30:15.066Z,5.87
2017-10-29T00:32:44.229Z,16.37
2017-10-29T00:35:12.595Z,11.70
2017-10-29T00:37:41.269Z,12.45
2017-10-29T00:40:09.632Z,8.60
2017-10-29T00:42:38.086Z,14.13
2017-10-29T00:45:07.261Z,8.05
2017-10-29T00:47:35.626Z,6.80
2017-10-29T00:50:04.048Z,6.68
2017-10-29T00:52:33.182Z,8.05
2017-10-29T00:55:01.547Z,9.80
2017-10-29T00:57:29.951Z,15.93
2017-10-29T00:59:58.342Z,8.98
2017-10-29T01:02:26.903Z,7.72
2017-10-29T01:04:55.275Z,5.75
2017-10-29T01:07:23.638Z,6.68
2017-10-29T01:09:52.036Z,8.55
2017-10-29T01:12:20.411Z,6.57
2017-10-29T01:14:48.995Z,9.50
2017-10-29T01:17:17.363Z,4.50
2017-10-29T01:19:45.726Z,20.55
2017-10-29T01:22:14.134Z,11.98
2017-10-29T01:24:42.498Z,8.45
2017-10-29T01:27:11.096Z,6.30
2017-10-29T01:29:39.459Z,12.48
2017-10-29T01:32:07.823Z,7.20
2017-10-29T01:34:36.212Z,7.90
2017-10-29T01:37:04.571Z,9.20
2017-10-29T01:39:33.192Z,5.80
2017-10-29T01:42:01.558Z,10.00
2017-10-29T01:44:29.914Z,9.07
2017-10-29T01:46:58.303Z,5.82
2017-10-29T01:49:26.666Z,6.30
2017-10-29T01:51:55.842Z,6.35
2017-10-29T01:54:24.230Z,5.18
2017-10-29T01:56:53.355Z,4.85
2017-10-29T01:59:21.746Z,4.60
2017-10-29T02:01:50.112Z,17.80
2017-10-29T02:04:18.470Z,3.83
2017-10-29T02:06:47.634Z,11.88
2017-10-29T02:09:16.007Z,2.42
2017-10-29T02:11:44.375Z,6.10
2017-10-29T02:14:12.939Z,2.65
2017-10-29T02:16:41.425Z,12.43
2017-10-29T02:19:09.798Z,5.72
2017-10-29T02:21:38.198Z,2.35
2017-10-29T02:24:06.600Z,4.37
2017-10-29T02:26:34.962Z,2.80
2017-10-29T02:29:03.366Z,6.07
2017-10-29T02:31:32.528Z,3.50
2017-10-29T02:34:00.894Z,2.50
2017-10-29T02:36:29.290Z,2.28
2017-10-29T02:38:57.674Z,3.35
2017-10-29T02:41:26.042Z,6.30
2017-10-29T02:43:54.442Z,5.18
2017-10-29T02:46:22.816Z,1.67
2017-10-29T02:48:51.182Z,3.12
2017-10-29T02:51:19.590Z,5.95
2017-10-29T02:53:48.722Z,5.18
2017-10-29T02:56:17.084Z,2.45
2017-10-29T02:58:45.694Z,6.45
2017-10-29T03:01:14.059Z,2.70
2017-10-29T03:03:42.447Z,1.48
2017-10-29T03:06:10.857Z,4.10
2017-10-29T03:08:39.229Z,2.25
2017-10-29T03:11:07.595Z,7.82
2017-10-29T03:13:35.987Z,2.00
2017-10-29T03:16:04.352Z,1.50
2017-10-29T03:18:32.928Z,15.80
2017-10-29T03:21:01.510Z,2.20
2017-10-29T03:23:29.875Z,5.18
2017-10-29T03:25:58.245Z,12.40
2017-10-29T03:28:26.730Z,4.12
2017-10-29T03:30:55.118Z,2.83
2017-10-29T03:33:23.486Z,10.65
2017-10-29T03:35:51.897Z,4.12
2017-10-29T03:38:20.274Z,2.30
2017-10-29T03:40:48.639Z,6.82
2017-10-29T03:43:17.043Z,4.80
2017-10-29T03:45:45.410Z,9.77
2017-10-29T03:48:13.778Z,6.37
2017-10-29T03:50:42.171Z,4.35
2017-10-29T03:53:10.545Z,8.18
2017-10-29T03:55:39.186Z,7.30
2017-10-29T03:58:07.587Z,1.62
2017-10-29T04:00:35.950Z,5.47
2017-10-29T04:03:04.316Z,1.52
2017-10-29T04:05:33.770Z,5.53
2017-10-29T04:08:02.130Z,1.42
2017-10-29T04:10:30.491Z,1.27
2017-10-29T04:12:58.895Z,1.55
2017-10-29T04:15:27.258Z,4.50
2017-10-29T04:17:55.635Z,5.32
2017-10-29T04:20:24.029Z,2.45
2017-10-29T04:22:52.422Z,2.75
2017-10-29T04:25:20.786Z,1.92
2017-10-29T04:27:49.190Z,3.62
2017-10-29T04:30:17.565Z,3.37
2017-10-29T04:32:45.946Z,15.30
2017-10-29T04:35:14.351Z,2.95
2017-10-29T04:37:43.490Z,7.82
2017-10-29T04:40:11.853Z,1.35
2017-10-29T04:42:40.275Z,2.15
2017-10-29T04:45:08.652Z,2.35
2017-10-29T04:47:37.019Z,2.37
2017-10-29T04:50:05.447Z,0.90
2017-10-29T04:52:34.577Z,8.02
2017-10-29T04:55:02.947Z,1.65
2017-10-29T04:57:31.346Z,15.77
2017-10-29T04:59:59.715Z,3.37
2017-10-29T05:02:28.080Z,4.85
2017-10-29T05:04:56.676Z,1.87
2017-10-29T05:07:25.044Z,1.83
2017-10-29T05:09:53.402Z,2.45
2017-10-29T05:12:21.815Z,5.85
2017-10-29T05:14:50.178Z,2.05
2017-10-29T05:17:18.541Z,1.17
2017-10-29T05:19:46.930Z,1.00
2017-10-29T05:22:15.288Z,6.90
2017-10-29T05:24:44.431Z,12.68
2017-10-29T05:27:12.834Z,1.00
2017-10-29T05:29:41.198Z,2.03
2017-10-29T05:32:09.559Z,3.83
2017-10-29T05:34:37.973Z,10.98
2017-10-29T05:37:06.331Z,1.10
2017-10-29T05:39:35.239Z,6.68
2017-10-29T05:42:03.641Z,3.00
2017-10-29T05:44:32.778Z,3.05
2017-10-29T05:47:01.141Z,1.70
2017-10-29T05:49:29.541Z,3.62
2017-10-29T05:51:57.934Z,7.82
2017-10-29T05:54:26.303Z,3.80
2017-10-29T05:56:54.712Z,7.93
2017-10-29T05:59:23.857Z,0.75
2017-10-29T06:01:52.215Z,0.90
2017-10-29T06:04:20.750Z,3.85
2017-10-29T06:06:49.127Z,2.20
2017-10-29T06:09:17.502Z,0.68
2017-10-29T06:11:45.895Z,1.05
2017-10-29T06:14:14.257Z,3.95
2017-10-29T06:16:42.639Z,5.45
2017-10-29T06:19:11.071Z,1.33
2017-10-29T06:21:39.453Z,10.48
2017-10-29T06:24:07.972Z,1.30
2017-10-29T06:26:36.370Z,2.80
2017-10-29T06:29:04.740Z,3.85
2017-10-29T06:31:33.162Z,2.40
2017-10-29T06:34:01.560Z,1.85
2017-10-29T06:36:30.424Z,3.55
2017-10-29T06:38:59.551Z,4.55
2017-10-29T06:41:28.285Z,5.53
2017-10-29T06:43:57.430Z,4.22
2017-10-29T06:46:25.796Z,0.80
2017-10-29T06:48:54.357Z,1.55
2017-10-29T06:51:23.490Z,5.37
2017-10-29T06:53:51.872Z,5.60
2017-10-29T06:56:20.275Z,1.73
2017-10-29T06:58:48.852Z,1.55
2017-10-29T07:01:17.215Z,0.90
2017-10-29T07:03:46.559Z,4.28
2017-10-29T07:06:14.972Z,14.23
2017-10-29T07:08:43.346Z,1.20
2017-10-29T07:11:11.744Z,2.25
2017-10-29T07:13:40.131Z,2.92
2017-10-29T07:16:08.506Z,4.72
2017-10-29T07:18:36.905Z,1.65
2017-10-29T07:21:05.291Z,5.05
2017-10-29T07:23:33.685Z,0.80
2017-10-29T07:26:02.107Z,1.73
2017-10-29T07:28:30.484Z,2.05
2017-10-29T07:30:58.867Z,1.08
2017-10-29T07:33:27.479Z,6.03
2017-10-29T07:35:55.841Z,1.75
2017-10-29T07:38:24.220Z,2.35
2017-10-29T07:40:52.727Z,4.62
2017-10-29T07:43:21.108Z,6.12
2017-10-29T07:45:49.527Z,3.35
2017-10-29T07:48:18.708Z,4.35
2017-10-29T07:50:47.910Z,3.00
2017-10-29T07:53:17.061Z,3.00
2017-10-29T07:55:45.607Z,2.28
2017-10-29T07:58:14.017Z,20.12
2017-10-29T08:00:42.447Z,4.75
2017-10-29T08:03:11.599Z,2.80
2017-10-29T08:05:40.510Z,5.25
2017-10-29T08:08:08.952Z,3.08
2017-10-29T08:10:37.416Z,5.07
2017-10-29T08:13:05.845Z,3.17
2017-10-29T08:15:34.233Z,6.68
2017-10-29T08:18:02.800Z,2.28
2017-10-29T08:20:31.178Z,2.40
2017-10-29T08:22:59.582Z,1.95
2017-10-29T08:25:28.012Z,8.27
2017-10-29T08:27:56.376Z,1.05
2017-10-29T08:30:26.000Z,3.28
2017-10-29T08:32:54.374Z,3.95
2017-10-29T08:35:22.809Z,4.25
2017-10-29T08:37:52.017Z,14.00
2017-10-29T08:40:21.190Z,6.93
2017-10-29T08:42:50.851Z,1.60
2017-10-29T08:45:19.288Z,2.95
2017-10-29T08:47:47.731Z,8.63
2017-10-29T08:50:16.183Z,7.62
2017-10-29T08:52:46.166Z,1.40
2017-10-29T08:55:15.480Z,4.37
2017-10-29T08:57:44.697Z,2.47
2017-10-29T09:00:13.071Z,2.08
2017-10-29T09:02:41.511Z,3.83
2017-10-29T09:05:10.680Z,1.08
2017-10-29T09:07:39.257Z,4.32
2017-10-29T09:10:08.322Z,1.77
2017-10-29T09:12:36.743Z,4.10
2017-10-29T09:15:05.651Z,1.17
2017-10-29T09:17:34.031Z,2.05
2017-10-29T09:20:02.869Z,5.87
2017-10-29T09:22:31.274Z,10.57
2017-10-29T09:24:59.666Z,2.85
2017-10-29T09:27:28.111Z,2.92
2017-10-29T09:29:56.491Z,1.75
2017-10-29T09:32:24.891Z,3.92
2017-10-29T09:34:53.279Z,5.25
2017-10-29T09:37:21.663Z,6.37
2017-10-29T09:39:50.114Z,2.05
2017-10-29T09:42:18.626Z,2.42
2017-10-29T09:44:47.382Z,2.80
2017-10-29T09:47:15.756Z,1.65
2017-10-29T09:49:44.123Z,3.05
2017-10-29T09:52:12.623Z,1.40
2017-10-29T09:54:42.203Z,1.60
2017-10-29T09:57:10.816Z,1.62
2017-10-29T09:59:39.184Z,0.80
2017-10-29T10:02:07.575Z,2.47
2017-10-29T10:04:36.004Z,1.45
2017-10-29T10:07:05.184Z,2.28
2017-10-29T10:09:33.828Z,1.60
2017-10-29T10:12:02.198Z,2.53
2017-10-29T10:14:32.238Z,1.55
2017-10-29T10:17:02.181Z,1.62
2017-10-29T10:19:31.430Z,1.85
2017-10-29T10:22:00.036Z,3.40
2017-10-29T10:24:28.725Z,1.00
2017-10-29T10:26:57.590Z,4.62
2017-10-29T10:29:26.662Z,8.52
2017-10-29T10:31:57.354Z,3.22
2017-10-29T10:34:27.131Z,1.30
2017-10-29T10:36:56.876Z,2.15
2017-10-29T10:39:25.273Z,1.15
2017-10-29T10:41:54.457Z,1.17
2017-10-29T10:44:22.831Z,1.20
2017-10-29T10:46:51.764Z,1.45
2017-10-29T10:49:22.032Z,3.12
2017-10-29T10:51:53.265Z,1.45
2017-10-29T10:54:22.154Z,3.03
2017-10-29T10:59:13.406Z,2.97
2017-10-29T11:01:42.431Z,6.07
2017-10-29T11:04:11.572Z,15.10
2017-10-29T11:06:44.302Z,4.22
2017-10-29T11:09:13.645Z,4.05
2017-10-29T11:11:42.486Z,2.60
2017-10-29T11:14:11.483Z,5.75
2017-10-29T11:16:42.585Z,3.17
2017-10-29T11:19:11.615Z,2.15
2017-10-29T11:21:41.754Z,11.35
2017-10-29T11:24:10.548Z,16.33
2017-10-29T11:26:39.206Z,6.65
2017-10-29T11:29:09.304Z,13.80
2017-10-29T11:31:41.796Z,11.50
2017-10-29T11:34:10.436Z,5.25
2017-10-29T11:36:39.222Z,10.73
2017-10-29T11:39:07.791Z,7.07
2017-10-29T11:41:36.206Z,18.77
2017-10-29T11:44:06.334Z,12.77
2017-10-29T11:46:35.037Z,11.20
2017-10-29T11:49:03.441Z,8.20
2017-10-29T11:51:32.629Z,5.00
2017-10-29T11:54:02.308Z,5.35
2017-10-29T11:56:30.751Z,12.88
2017-10-29T11:58:59.770Z,5.30
2017-10-29T12:01:28.132Z,13.85
2017-10-29T12:03:56.636Z,10.57
2017-10-29T12:06:25.379Z,8.25
2017-10-29T12:08:53.792Z,9.18
2017-10-29T12:11:22.460Z,5.70
2017-10-29T12:13:51.851Z,7.55
2017-10-29T12:16:20.295Z,13.65
2017-10-29T12:18:51.215Z,13.70
2017-10-29T12:21:20.384Z,19.12
2017-10-29T12:23:51.214Z,16.70
2017-10-29T12:26:20.106Z,16.48
2017-10-29T12:28:49.913Z,16.33
2017-10-29T12:31:18.903Z,14.35
2017-10-29T12:33:47.414Z,8.18
2017-10-29T12:36:16.049Z,9.73
2017-10-29T12:38:45.355Z,8.93
2017-10-29T12:41:14.678Z,8.00
2017-10-29T12:43:45.586Z,18.45
2017-10-29T12:46:15.283Z,8.38
2017-10-29T12:48:45.266Z,17.25
2017-10-29T12:51:15.256Z,10.13
2017-10-29T12:53:45.230Z,12.00
2017-10-29T12:56:15.773Z,14.55
2017-10-29T12:58:44.754Z,13.43
2017-10-29T13:01:15.119Z,21.67
2017-10-29T13:03:45.244Z,13.10
2017-10-29T13:06:15.877Z,14.27
2017-10-29T13:08:46.443Z,10.98
2017-10-29T13:11:17.337Z,18.35
2017-10-29T13:13:46.679Z,9.75
2017-10-29T13:16:16.223Z,9.02
2017-10-29T13:18:44.761Z,12.57
2017-10-29T13:21:13.355Z,14.50
2017-10-29T13:23:42.483Z,10.43
2017-10-29T13:26:10.950Z,8.23
2017-10-29T13:28:39.535Z,21.10
2017-10-29T13:31:08.048Z,13.85
2017-10-29T13:33:38.109Z,15.70
2017-10-29T13:36:07.404Z,13.85
2017-10-29T13:38:35.926Z,9.20
2017-10-29T13:41:04.423Z,10.45
2017-10-29T13:43:32.927Z,13.23
2017-10-29T13:46:01.791Z,15.50
2017-10-29T13:48:30.171Z,13.65
2017-10-29T13:50:58.558Z,16.80
2017-10-29T13:53:26.946Z,10.05
2017-10-29T13:55:55.314Z,8.77
2017-10-29T13:58:23.867Z,14.65
2017-10-29T14:00:52.230Z,19.60
2017-10-29T14:03:21.398Z,19.85
2017-10-29T14:05:49.783Z,8.27
2017-10-29T14:08:18.158Z,9.30
2017-10-29T14:10:46.804Z,19.92
2017-10-29T14:13:15.183Z,19.98
2017-10-29T14:15:43.616Z,8.05
2017-10-29T14:18:12.891Z,14.23
2017-10-29T14:20:41.266Z,11.60
2017-10-29T14:23:09.679Z,9.30
2017-10-29T14:25:38.828Z,18.25
2017-10-29T14:28:07.195Z,16.42
2017-10-29T14:30:35.679Z,16.67
2017-10-29T14:33:04.135Z,13.15
2017-10-29T14:35:33.252Z,13.85
2017-10-29T14:38:02.456Z,14.43
2017-10-29T14:40:30.863Z,19.48
2017-10-29T14:42:59.450Z,15.20
2017-10-29T14:45:28.639Z,14.50
2017-10-29T14:47:57.041Z,10.43
2017-10-29T14:50:25.447Z,15.40
2017-10-29T14:52:53.867Z,11.95
2017-10-29T14:55:23.027Z,15.82
2017-10-29T14:57:51.423Z,13.70
2017-10-29T15:00:19.806Z,25.88
2017-10-29T15:02:48.187Z,16.02
2017-10-29T15:05:17.127Z,22.17
2017-10-29T15:07:46.326Z,27.15
2017-10-29T15:10:15.611Z,14.20
2017-10-29T15:12:44.843Z,19.30
2017-10-29T15:15:13.224Z,26.42
2017-10-29T15:17:42.320Z,19.45
2017-10-29T15:20:10.810Z,19.77
2017-10-29T15:22:39.417Z,15.23
2017-10-29T15:25:07.838Z,15.68
2017-10-29T15:27:37.118Z,23.05
2017-10-29T15:30:05.744Z,24.33
2017-10-29T15:32:34.509Z,13.02
2017-10-29T15:35:03.851Z,14.25
2017-10-29T15:37:32.239Z,16.52
2017-10-29T15:40:00.608Z,19.42
2017-10-29T15:42:29.041Z,21.02
2017-10-29T15:44:58.316Z,11.75
2017-10-29T15:47:26.967Z,17.17
2017-10-29T15:49:55.341Z,22.87
2017-10-29T15:52:23.855Z,19.92
2017-10-29T15:54:52.317Z,23.33
2017-10-29T15:57:20.737Z,20.20
2017-10-29T15:59:49.202Z,15.93
2017-10-29T16:02:17.576Z,15.93
2017-10-29T16:04:45.984Z,24.37
2017-10-29T16:07:15.160Z,16.87
2017-10-29T16:09:44.323Z,22.20
2017-10-29T16:12:12.783Z,32.95
2017-10-29T16:14:41.156Z,15.38
2017-10-29T16:17:09.566Z,17.10
2017-10-29T16:19:37.978Z,20.48
2017-10-29T16:22:06.500Z,19.02
2017-10-29T16:24:35.099Z,12.85
2017-10-29T16:27:03.535Z,19.15
2017-10-29T16:29:32.735Z,17.25
2017-10-29T16:32:01.898Z,27.35
2017-10-29T16:34:30.360Z,37.35
2017-10-29T16:36:59.427Z,13.50
2017-10-29T16:39:27.903Z,11.45
2017-10-29T16:41:56.275Z,18.25
2017-10-29T16:44:25.439Z,12.43
2017-10-29T16:46:54.107Z,14.30
2017-10-29T16:49:23.087Z,15.20
2017-10-29T16:51:51.905Z,25.92
2017-10-29T16:54:20.515Z,27.33
2017-10-29T16:56:49.012Z,19.15
2017-10-29T16:59:17.746Z,31.37
2017-10-29T17:01:46.453Z,16.65
2017-10-29T17:04:15.598Z,7.00
2017-10-29T17:06:44.362Z,9.50
2017-10-29T17:09:13.018Z,15.80
2017-10-29T17:11:41.451Z,19.92
2017-10-29T17:14:10.867Z,23.67
2017-10-29T17:16:39.848Z,15.95
2017-10-29T17:19:08.692Z,18.37
2017-10-29T17:21:38.336Z,13.70
2017-10-29T17:24:06.783Z,14.73
2017-10-29T17:26:37.610Z,19.02
2017-10-29T17:29:06.973Z,20.15
2017-10-29T17:31:36.573Z,26.33
2017-10-29T17:34:05.331Z,18.12
2017-10-29T17:36:33.852Z,21.15
2017-10-29T17:39:03.084Z,20.50
2017-10-29T17:41:32.043Z,21.65
2017-10-29T17:44:01.014Z,17.48
2017-10-29T17:46:29.517Z,34.83
2017-10-29T17:48:57.932Z,16.33
2017-10-29T17:51:27.192Z,16.20
2017-10-29T17:53:55.852Z,13.45
2017-10-29T17:56:24.561Z,15.93
2017-10-29T17:58:53.460Z,28.70
2017-10-29T18:01:22.597Z,21.95
2017-10-29T18:03:51.331Z,21.90
2017-10-29T18:06:19.716Z,14.60
2017-10-29T18:08:48.401Z,16.10
2017-10-29T18:11:16.930Z,22.95
2017-10-29T18:13:46.589Z,12.80
2017-10-29T18:16:15.295Z,26.05
2017-10-29T18:18:44.477Z,19.05
2017-10-29T18:21:13.194Z,41.05
2017-10-29T18:23:41.602Z,30.45
2017-10-29T18:26:10.722Z,30.65
2017-10-29T18:28:39.110Z,25.67
2017-10-29T18:31:07.481Z,19.87
2017-10-29T18:33:35.943Z,21.77
2017-10-29T18:36:04.348Z,31.73
2017-10-29T18:38:33.306Z,24.45
2017-10-29T18:41:03.398Z,23.35
2017-10-29T18:43:31.831Z,29.95
2017-10-29T18:46:00.603Z,19.37
2017-10-29T18:48:29.152Z,13.35
2017-10-29T18:50:59.059Z,27.08
2017-10-29T18:53:27.799Z,32.55
2017-10-29T18:55:56.198Z,22.02
2017-10-29T18:58:24.976Z,35.05
2017-10-29T19:00:53.436Z,32.55
2017-10-29T19:03:21.939Z,23.30
2017-10-29T19:05:50.416Z,27.20
2017-10-29T19:08:20.223Z,35.40
2017-10-29T19:10:49.120Z,18.48
2017-10-29T19:13:17.599Z,24.27
2017-10-29T19:15:46.007Z,27.08
2017-10-29T19:18:15.195Z,15.25
2017-10-29T19:20:43.745Z,26.25
2017-10-29T19:23:12.848Z,33.38
2017-10-29T19:25:41.271Z,15.38
2017-10-29T19:28:09.761Z,29.75
2017-10-29T19:30:39.246Z,22.23
2017-10-29T19:33:09.287Z,22.20
2017-10-29T19:35:38.557Z,25.50
2017-10-29T19:38:07.010Z,23.52
2017-10-29T19:40:35.598Z,35.17
2017-10-29T19:43:04.832Z,20.42
2017-10-29T19:45:33.211Z,26.42
2017-10-29T19:48:01.960Z,23.12
2017-10-29T19:50:30.443Z,30.48
2017-10-29T19:52:58.825Z,23.42
2017-10-29T19:55:27.260Z,24.27
2017-10-29T19:57:55.701Z,20.83
2017-10-29T20:00:24.478Z,22.52
2017-10-29T20:02:52.865Z,14.05
2017-10-29T20:05:21.277Z,26.62
2017-10-29T20:07:50.441Z,14.27
2017-10-29T20:10:18.817Z,14.48
2017-10-29T20:12:47.620Z,34.88
2017-10-29T20:15:16.004Z,20.58
2017-10-29T20:17:44.462Z,22.60
2017-10-29T20:20:12.866Z,18.55
2017-10-29T20:22:41.305Z,19.80
2017-10-29T20:25:09.729Z,36.28
2017-10-29T20:27:38.875Z,27.85
2017-10-29T20:30:07.248Z,19.73
2017-10-29T20:32:35.652Z,18.23
2017-10-29T20:35:04.019Z,32.75
2017-10-29T20:37:32.448Z,25.12
2017-10-29T20:40:01.583Z,29.40
2017-10-29T20:42:30.023Z,25.50
2017-10-29T20:44:59.245Z,27.13
2017-10-29T20:47:27.616Z,14.82
2017-10-29T20:49:56.158Z,24.48
2017-10-29T20:52:24.574Z,13.50
2017-10-29T20:54:52.952Z,20.05
2017-10-29T20:57:21.364Z,23.40
2017-10-29T20:59:50.016Z,36.80
2017-10-29T21:02:19.103Z,28.42
2017-10-29T21:04:47.805Z,29.15
2017-10-29T21:07:16.232Z,16.20
2017-10-29T21:09:45.434Z,27.08
2017-10-29T21:12:13.886Z,24.77
2017-10-29T21:14:42.649Z,21.58
2017-10-29T21:17:11.129Z,17.70
2017-10-29T21:19:39.644Z,30.58
2017-10-29T21:22:08.146Z,18.40
2017-10-29T21:24:36.804Z,23.45
2017-10-29T21:27:06.292Z,23.10
2017-10-29T21:29:34.677Z,13.85
2017-10-29T21:32:03.568Z,22.40
2017-10-29T21:34:32.402Z,28.48
2017-10-29T21:37:01.088Z,21.58
2017-10-29T21:39:29.883Z,19.30
2017-10-29T21:41:59.144Z,23.00
2017-10-29T21:44:27.559Z,25.62
2017-10-29T21:46:57.125Z,16.87
2017-10-29T21:49:25.539Z,20.58
2017-10-29T21:51:54.385Z,11.55
2017-10-29T21:54:23.476Z,26.92
2017-10-29T21:56:51.966Z,15.05
2017-10-29T21:59:40.913Z,13.07
2017-10-29T22:02:10.029Z,12.18
2017-10-29T22:04:38.971Z,13.18
2017-10-29T22:07:07.569Z,15.63
2017-10-29T22:09:36.499Z,20.17
2017-10-29T22:12:05.176Z,25.00
2017-10-29T22:14:34.761Z,15.75
2017-10-29T22:17:04.223Z,24.33
2017-10-29T22:19:33.690Z,14.32
2017-10-29T22:22:02.052Z,18.65
2017-10-29T22:24:30.444Z,10.90
2017-10-29T22:26:58.809Z,22.95
2017-10-29T22:29:27.704Z,13.15
2017-10-29T22:31:56.172Z,26.20
2017-10-29T22:34:24.538Z,19.27
2017-10-29T22:36:52.931Z,17.42
2017-10-29T22:39:21.298Z,23.80
2017-10-29T22:41:50.008Z,22.77
2017-10-29T22:44:18.378Z,30.17
2017-10-29T22:46:46.758Z,18.55
2017-10-29T22:49:15.147Z,30.65
2017-10-29T22:51:43.734Z,19.92
2017-10-29T22:54:13.298Z,16.65
2017-10-29T22:56:42.561Z,31.58
2017-10-29T22:59:11.019Z,23.65
2017-10-29T23:01:39.439Z,22.95
2017-10-29T23:04:07.806Z,18.10
2017-10-29T23:06:48.256Z,18.37
2017-10-29T23:09:25.199Z,32.83
2017-10-29T23:11:53.890Z,20.52
2017-10-29T23:14:22.254Z,26.30
2017-10-29T23:16:50.625Z,17.55
2017-10-29T23:19:19.014Z,22.35
2017-10-29T23:21:47.407Z,39.28
2017-10-29T23:24:15.810Z,15.20
2017-10-29T23:26:44.184Z,18.83
2017-10-29T23:29:12.556Z,26.33
2017-10-29T23:31:40.956Z,28.60
2017-10-29T23:34:10.931Z,17.95
2017-10-29T23:36:39.527Z,27.45
2017-10-29T23:39:07.943Z,17.80
2017-10-29T23:41:37.930Z,20.05
2017-10-29T23:44:06.323Z,19.27
2017-10-29T23:46:34.726Z,23.08
2017-10-29T23:49:04.277Z,30.95
2017-10-29T23:51:32.654Z,12.35
2017-10-29T23:54:01.017Z,16.83
2017-10-29T23:56:29.651Z,22.83
2017-10-29T23:58:58.134Z,32.70
